CheckWX is a tool to help pilots better visualize weather data.  It is not intended as a substitute for an official pre-flight weather briefing.

04:20:18 UTC

KTOA METAR
Zamperini Field Airport
Torrance, California, USA
Current

2 hours ago

KTOA 270248Z 26010KT 10SM FEW015 SCT020 18/15 A2996 RMK LAST
Observed
Jun-27 @ 02:48 UTC
Wind
  • 260° at 10 KTS
Visibility
10 SM
Flight Rules
VFR
Cloud Levels
  • Few at 1,500' AGL
  • Scattered at 2,000' AGL
Temperature
18°C / 64°F
Dewpoint
15°C / 59°F
Humidity
83%
Altimeter
29.96" Hg
Pressure
1014.52 hPa
Previous

2 hours ago

KTOA 270152Z 26012KT 10SM FEW015 SCT020 18/15 A2995
Observed
Jun-27 @ 01:52 UTC
Wind
  • 260° at 12 KTS
Visibility
10 SM
Flight Rules
VFR
Cloud Levels
  • Few at 1,500' AGL
  • Scattered at 2,000' AGL
Temperature
18°C / 64°F
Dewpoint
15°C / 59°F
Humidity
83%
Altimeter
29.95" Hg
Pressure
1014.22 hPa
Previous

4 hours ago

KTOA 270047Z 26013KT 10SM BKN012 19/16 A2995
Observed
Jun-27 @ 00:47 UTC
Wind
  • 260° at 13 KTS
Visibility
10 SM
Flight Rules
MVFR
Cloud Levels
  • Broken at 1,200' AGL
Temperature
19°C / 66°F
Dewpoint
16°C / 61°F
Humidity
83%
Altimeter
29.95" Hg
Pressure
1014.22 hPa